sensor_id;sensor_type;location;lat;lon;timestamp;pressure;altitude;pressure_sealevel;temperature;humidity
13486;BME280;6815;59.336;17.998;2022-10-16T00:01:58;75967.06;;;-145.37;95.66
13486;BME280;6815;59.336;17.998;2022-10-16T00:04:25;75963.03;;;-145.37;95.65
13486;BME280;6815;59.336;17.998;2022-10-16T00:06:50;75963.03;;;-145.37;95.50
13486;BME280;6815;59.336;17.998;2022-10-16T00:09:16;75965.06;;;-145.37;95.61
13486;BME280;6815;59.336;17.998;2022-10-16T00:11:41;75963.03;;;-145.37;95.50
13486;BME280;6815;59.336;17.998;2022-10-16T00:14:10;75961.03;;;-145.37;95.23
13486;BME280;6815;59.336;17.998;2022-10-16T00:16:36;75967.06;;;-145.37;95.27
13486;BME280;6815;59.336;17.998;2022-10-16T00:19:03;75963.03;;;-145.37;95.08
13486;BME280;6815;59.336;17.998;2022-10-16T00:21:29;75959.03;;;-145.37;94.80
13486;BME280;6815;59.336;17.998;2022-10-16T00:24:01;75963.03;;;-145.37;94.70
13486;BME280;6815;59.336;17.998;2022-10-16T00:26:29;75963.03;;;-145.37;95.03
13486;BME280;6815;59.336;17.998;2022-10-16T00:28:55;75963.03;;;-145.37;94.78
13486;BME280;6815;59.336;17.998;2022-10-16T00:31:22;75959.03;;;-145.37;94.98
13486;BME280;6815;59.336;17.998;2022-10-16T00:33:49;75963.03;;;-145.37;94.82
13486;BME280;6815;59.336;17.998;2022-10-16T00:36:17;75959.03;;;-145.37;94.76
13486;BME280;6815;59.336;17.998;2022-10-16T00:38:43;75957.00;;;-145.37;94.60
13486;BME280;6815;59.336;17.998;2022-10-16T00:41:12;75959.03;;;-145.37;94.61
13486;BME280;6815;59.336;17.998;2022-10-16T00:46:19;75953.00;;;-145.37;94.18
13486;BME280;6815;59.336;17.998;2022-10-16T00:51:33;75957.00;;;-145.37;94.08
13486;BME280;6815;59.336;17.998;2022-10-16T00:53:59;75953.00;;;-145.37;93.88
13486;BME280;6815;59.336;17.998;2022-10-16T00:56:25;75961.03;;;-145.37;93.66
13486;BME280;6815;59.336;17.998;2022-10-16T00:58:51;75965.06;;;-145.37;93.92
13486;BME280;6815;59.336;17.998;2022-10-16T01:01:17;75963.03;;;-145.37;93.75
13486;BME280;6815;59.336;17.998;2022-10-16T01:03:42;75971.09;;;-145.37;93.56
13486;BME280;6815;59.336;17.998;2022-10-16T01:11:27;75951.00;;;-145.37;93.70
13486;BME280;6815;59.336;17.998;2022-10-16T01:14:00;75961.03;;;-145.37;93.86
13486;BME280;6815;59.336;17.998;2022-10-16T01:16:40;75959.03;;;-145.37;93.72
13486;BME280;6815;59.336;17.998;2022-10-16T01:19:14;75961.03;;;-145.37;93.45
13486;BME280;6815;59.336;17.998;2022-10-16T01:21:43;75971.09;;;-145.37;93.67
13486;BME280;6815;59.336;17.998;2022-10-16T01:29:44;75973.09;;;-145.37;93.92
13486;BME280;6815;59.336;17.998;2022-10-16T01:32:27;75977.13;;;-145.37;93.69
13486;BME280;6815;59.336;17.998;2022-10-16T01:35:11;75985.16;;;-145.37;93.84
13486;BME280;6815;59.336;17.998;2022-10-16T01:37:43;75975.09;;;-145.37;93.91
13486;BME280;6815;59.336;17.998;2022-10-16T01:40:16;75973.09;;;-145.37;93.75
13486;BME280;6815;59.336;17.998;2022-10-16T01:42:47;75977.13;;;-145.37;93.54
13486;BME280;6815;59.336;17.998;2022-10-16T01:45:17;75979.13;;;-145.37;93.72
13486;BME280;6815;59.336;17.998;2022-10-16T01:47:44;75981.13;;;-145.37;93.36
13486;BME280;6815;59.336;17.998;2022-10-16T01:50:12;75977.13;;;-145.37;93.44
13486;BME280;6815;59.336;17.998;2022-10-16T01:52:41;75983.16;;;-145.37;93.17
13486;BME280;6815;59.336;17.998;2022-10-16T01:55:10;75983.16;;;-145.37;93.33
13486;BME280;6815;59.336;17.998;2022-10-16T01:57:40;75993.19;;;-145.37;93.27
13486;BME280;6815;59.336;17.998;2022-10-16T02:00:11;75983.16;;;-145.37;93.29
13486;BME280;6815;59.336;17.998;2022-10-16T02:02:39;75979.13;;;-145.37;93.36
13486;BME280;6815;59.336;17.998;2022-10-16T02:05:15;75969.06;;;-145.37;93.14
13486;BME280;6815;59.336;17.998;2022-10-16T02:07:41;75969.06;;;-145.37;93.34
13486;BME280;6815;59.336;17.998;2022-10-16T02:10:08;75963.03;;;-145.37;93.02
13486;BME280;6815;59.336;17.998;2022-10-16T02:12:36;75967.06;;;-145.37;93.31
13486;BME280;6815;59.336;17.998;2022-10-16T02:15:05;75967.06;;;-145.37;93.01
13486;BME280;6815;59.336;17.998;2022-10-16T02:17:31;75967.06;;;-145.37;93.02
13486;BME280;6815;59.336;17.998;2022-10-16T02:19:57;75963.03;;;-145.37;92.87
13486;BME280;6815;59.336;17.998;2022-10-16T02:22:45;75969.06;;;-145.37;92.77
13486;BME280;6815;59.336;17.998;2022-10-16T02:27:59;75959.03;;;-145.37;92.54
13486;BME280;6815;59.336;17.998;2022-10-16T02:33:02;75965.06;;;-145.37;92.64
13486;BME280;6815;59.336;17.998;2022-10-16T02:35:34;75967.06;;;-145.37;92.60
13486;BME280;6815;59.336;17.998;2022-10-16T02:38:01;75971.09;;;-145.37;92.68
13486;BME280;6815;59.336;17.998;2022-10-16T02:40:27;75969.06;;;-145.37;92.73
13486;BME280;6815;59.336;17.998;2022-10-16T02:42:54;75977.13;;;-145.37;92.79
13486;BME280;6815;59.336;17.998;2022-10-16T02:45:20;75979.13;;;-145.37;92.79
13486;BME280;6815;59.336;17.998;2022-10-16T02:47:46;75969.06;;;-145.37;92.48
13486;BME280;6815;59.336;17.998;2022-10-16T02:50:11;75959.03;;;-145.37;92.60
13486;BME280;6815;59.336;17.998;2022-10-16T02:52:37;75959.03;;;-145.37;92.49
13486;BME280;6815;59.336;17.998;2022-10-16T02:55:02;75942.94;;;-145.37;92.27
13486;BME280;6815;59.336;17.998;2022-10-16T02:57:28;75940.94;;;-145.37;92.25
13486;BME280;6815;59.336;17.998;2022-10-16T02:59:53;75946.97;;;-145.37;92.29
13486;BME280;6815;59.336;17.998;2022-10-16T03:02:19;75942.94;;;-145.37;92.17
13486;BME280;6815;59.336;17.998;2022-10-16T03:04:45;75942.94;;;-145.37;91.97
13486;BME280;6815;59.336;17.998;2022-10-16T03:07:10;75942.94;;;-145.37;92.17
13486;BME280;6815;59.336;17.998;2022-10-16T03:09:36;75940.94;;;-145.37;92.10
13486;BME280;6815;59.336;17.998;2022-10-16T03:12:01;75944.97;;;-145.37;92.02
13486;BME280;6815;59.336;17.998;2022-10-16T03:14:26;75942.94;;;-145.37;92.13
13486;BME280;6815;59.336;17.998;2022-10-16T03:16:52;75934.91;;;-145.37;92.15
13486;BME280;6815;59.336;17.998;2022-10-16T03:19:18;75934.91;;;-145.37;91.98
13486;BME280;6815;59.336;17.998;2022-10-16T03:21:44;75934.91;;;-145.37;92.07
13486;BME280;6815;59.336;17.998;2022-10-16T03:24:09;75928.88;;;-145.37;91.72
13486;BME280;6815;59.336;17.998;2022-10-16T03:26:35;75938.94;;;-145.37;91.75
13486;BME280;6815;59.336;17.998;2022-10-16T03:29:02;75938.94;;;-145.37;91.59
13486;BME280;6815;59.336;17.998;2022-10-16T03:31:29;75942.94;;;-145.37;91.50
13486;BME280;6815;59.336;17.998;2022-10-16T03:33:54;75961.03;;;-145.37;91.78
13486;BME280;6815;59.336;17.998;2022-10-16T03:36:20;75961.03;;;-145.37;91.64
13486;BME280;6815;59.336;17.998;2022-10-16T03:38:45;75946.97;;;-145.37;91.58
13486;BME280;6815;59.336;17.998;2022-10-16T03:41:11;75946.97;;;-145.37;91.36
13486;BME280;6815;59.336;17.998;2022-10-16T03:43:37;75951.00;;;-145.37;91.50
13486;BME280;6815;59.336;17.998;2022-10-16T03:46:03;75953.00;;;-145.37;91.53
13486;BME280;6815;59.336;17.998;2022-10-16T03:48:29;75951.00;;;-145.37;91.67
13486;BME280;6815;59.336;17.998;2022-10-16T03:50:54;75953.00;;;-145.37;91.49
13486;BME280;6815;59.336;17.998;2022-10-16T03:53:20;75955.00;;;-145.37;91.70
13486;BME280;6815;59.336;17.998;2022-10-16T03:55:45;75961.03;;;-145.37;91.75
13486;BME280;6815;59.336;17.998;2022-10-16T03:58:11;75959.03;;;-145.37;91.88
13486;BME280;6815;59.336;17.998;2022-10-16T04:00:43;75955.00;;;-145.37;91.70
13486;BME280;6815;59.336;17.998;2022-10-16T04:03:10;75955.00;;;-145.37;91.79
13486;BME280;6815;59.336;17.998;2022-10-16T04:05:35;75951.00;;;-145.37;91.21
13486;BME280;6815;59.336;17.998;2022-10-16T04:08:01;75946.97;;;-145.37;91.37
13486;BME280;6815;59.336;17.998;2022-10-16T04:10:26;75942.94;;;-145.37;91.00
13486;BME280;6815;59.336;17.998;2022-10-16T04:12:52;75951.00;;;-145.37;91.05
13486;BME280;6815;59.336;17.998;2022-10-16T04:15:19;75959.03;;;-145.37;91.03
13486;BME280;6815;59.336;17.998;2022-10-16T04:17:46;75963.03;;;-145.37;91.12
13486;BME280;6815;59.336;17.998;2022-10-16T04:20:12;75961.03;;;-145.37;91.27
13486;BME280;6815;59.336;17.998;2022-10-16T04:22:37;75965.06;;;-145.37;91.08
13486;BME280;6815;59.336;17.998;2022-10-16T04:25:03;75957.00;;;-145.37;91.25
13486;BME280;6815;59.336;17.998;2022-10-16T04:27:28;75973.09;;;-145.37;91.32
13486;BME280;6815;59.336;17.998;2022-10-16T04:29:56;75975.09;;;-145.37;91.54
13486;BME280;6815;59.336;17.998;2022-10-16T04:32:22;75983.16;;;-145.37;91.17
13486;BME280;6815;59.336;17.998;2022-10-16T04:34:47;75981.13;;;-145.37;91.27
13486;BME280;6815;59.336;17.998;2022-10-16T04:37:13;75973.09;;;-145.37;91.14
13486;BME280;6815;59.336;17.998;2022-10-16T04:39:38;75977.13;;;-145.37;91.20
13486;BME280;6815;59.336;17.998;2022-10-16T04:42:04;75981.13;;;-145.37;91.26
13486;BME280;6815;59.336;17.998;2022-10-16T04:44:29;75971.09;;;-145.37;91.38
13486;BME280;6815;59.336;17.998;2022-10-16T04:46:58;75977.13;;;-145.37;91.47
13486;BME280;6815;59.336;17.998;2022-10-16T04:49:23;75989.19;;;-145.37;91.67
13486;BME280;6815;59.336;17.998;2022-10-16T04:51:49;75985.16;;;-145.37;91.86
13486;BME280;6815;59.336;17.998;2022-10-16T04:54:14;75985.16;;;-145.37;92.03
13486;BME280;6815;59.336;17.998;2022-10-16T04:56:40;75987.16;;;-145.37;91.89
13486;BME280;6815;59.336;17.998;2022-10-16T04:59:17;75999.22;;;-145.37;92.07
13486;BME280;6815;59.336;17.998;2022-10-16T05:01:44;75985.16;;;-145.37;91.95
13486;BME280;6815;59.336;17.998;2022-10-16T05:04:09;75987.16;;;-145.37;91.85
13486;BME280;6815;59.336;17.998;2022-10-16T05:06:36;75991.19;;;-145.37;91.74
13486;BME280;6815;59.336;17.998;2022-10-16T05:09:03;75995.22;;;-145.37;91.80
13486;BME280;6815;59.336;17.998;2022-10-16T05:11:29;75995.22;;;-145.37;91.79
13486;BME280;6815;59.336;17.998;2022-10-16T05:13:54;75995.22;;;-145.37;91.88
13486;BME280;6815;59.336;17.998;2022-10-16T05:16:20;75999.22;;;-145.37;92.09
13486;BME280;6815;59.336;17.998;2022-10-16T05:18:45;75997.22;;;-145.37;92.31
13486;BME280;6815;59.336;17.998;2022-10-16T05:21:10;75999.22;;;-145.37;92.17
13486;BME280;6815;59.336;17.998;2022-10-16T05:23:36;75991.19;;;-145.37;92.08
13486;BME280;6815;59.336;17.998;2022-10-16T05:26:01;75991.19;;;-145.37;92.25
13486;BME280;6815;59.336;17.998;2022-10-16T05:28:28;75999.22;;;-145.37;92.33
13486;BME280;6815;59.336;17.998;2022-10-16T05:30:55;75997.22;;;-145.37;92.54
13486;BME280;6815;59.336;17.998;2022-10-16T05:33:22;75995.22;;;-145.37;92.55
13486;BME280;6815;59.336;17.998;2022-10-16T05:35:47;75989.19;;;-145.37;92.54
13486;BME280;6815;59.336;17.998;2022-10-16T05:38:15;75997.22;;;-145.37;92.72
13486;BME280;6815;59.336;17.998;2022-10-16T05:40:41;75995.22;;;-145.37;92.74
13486;BME280;6815;59.336;17.998;2022-10-16T05:43:06;75995.22;;;-145.37;92.91
13486;BME280;6815;59.336;17.998;2022-10-16T05:45:31;75987.16;;;-145.37;92.82
13486;BME280;6815;59.336;17.998;2022-10-16T05:47:57;75993.19;;;-145.37;92.97
13486;BME280;6815;59.336;17.998;2022-10-16T05:50:22;75991.19;;;-145.37;93.10
13486;BME280;6815;59.336;17.998;2022-10-16T05:52:47;75991.19;;;-145.37;92.73
13486;BME280;6815;59.336;17.998;2022-10-16T05:55:13;75989.19;;;-145.37;92.94
13486;BME280;6815;59.336;17.998;2022-10-16T05:57:38;75987.16;;;-145.37;93.35
13486;BME280;6815;59.336;17.998;2022-10-16T06:00:05;76001.25;;;-145.37;93.67
13486;BME280;6815;59.336;17.998;2022-10-16T06:02:30;76001.25;;;-145.37;93.67
13486;BME280;6815;59.336;17.998;2022-10-16T06:04:56;75997.22;;;-145.37;93.78
13486;BME280;6815;59.336;17.998;2022-10-16T06:07:22;75995.22;;;-145.37;94.04
13486;BME280;6815;59.336;17.998;2022-10-16T06:09:49;76005.25;;;-145.37;94.55
13486;BME280;6815;59.336;17.998;2022-10-16T06:12:15;75997.22;;;-145.37;94.59
13486;BME280;6815;59.336;17.998;2022-10-16T06:14:40;75995.22;;;-145.37;95.09
13486;BME280;6815;59.336;17.998;2022-10-16T06:17:06;75991.19;;;-145.37;94.83
13486;BME280;6815;59.336;17.998;2022-10-16T06:19:31;75999.22;;;-145.37;95.01
13486;BME280;6815;59.336;17.998;2022-10-16T06:21:56;75993.19;;;-145.37;95.24
13486;BME280;6815;59.336;17.998;2022-10-16T06:24:23;75993.19;;;-145.37;95.33
13486;BME280;6815;59.336;17.998;2022-10-16T06:26:48;75991.19;;;-145.37;95.34
13486;BME280;6815;59.336;17.998;2022-10-16T06:29:14;75995.22;;;-145.37;95.52
13486;BME280;6815;59.336;17.998;2022-10-16T06:31:39;75991.19;;;-145.37;95.57
13486;BME280;6815;59.336;17.998;2022-10-16T06:34:05;75991.19;;;-145.37;95.49
13486;BME280;6815;59.336;17.998;2022-10-16T06:36:34;75987.16;;;-145.37;95.44
13486;BME280;6815;59.336;17.998;2022-10-16T06:39:00;75987.16;;;-145.37;95.41
13486;BME280;6815;59.336;17.998;2022-10-16T06:41:25;75985.16;;;-145.37;95.43
13486;BME280;6815;59.336;17.998;2022-10-16T06:43:51;75985.16;;;-145.37;95.39
13486;BME280;6815;59.336;17.998;2022-10-16T06:46:21;75989.19;;;-145.37;95.65
13486;BME280;6815;59.336;17.998;2022-10-16T06:48:47;75987.16;;;-145.37;95.78
13486;BME280;6815;59.336;17.998;2022-10-16T06:51:15;75985.16;;;-145.37;95.70
13486;BME280;6815;59.336;17.998;2022-10-16T06:53:45;75983.16;;;-145.37;95.55
13486;BME280;6815;59.336;17.998;2022-10-16T06:56:13;75981.13;;;-145.37;95.38
13486;BME280;6815;59.336;17.998;2022-10-16T06:58:39;75977.13;;;-145.37;95.32
13486;BME280;6815;59.336;17.998;2022-10-16T07:01:05;75975.09;;;-145.37;95.32
13486;BME280;6815;59.336;17.998;2022-10-16T07:03:31;75977.13;;;-145.37;95.17
13486;BME280;6815;59.336;17.998;2022-10-16T07:05:56;75979.13;;;-145.37;95.27
13486;BME280;6815;59.336;17.998;2022-10-16T07:08:22;75981.13;;;-145.37;95.17
13486;BME280;6815;59.336;17.998;2022-10-16T07:10:47;75975.09;;;-145.37;95.05
13486;BME280;6815;59.336;17.998;2022-10-16T07:13:13;75977.13;;;-145.37;95.15
13486;BME280;6815;59.336;17.998;2022-10-16T07:15:40;75977.13;;;-145.37;95.17
13486;BME280;6815;59.336;17.998;2022-10-16T07:18:06;75983.16;;;-145.37;95.10
13486;BME280;6815;59.336;17.998;2022-10-16T07:20:32;75979.13;;;-145.37;94.89
13486;BME280;6815;59.336;17.998;2022-10-16T07:22:58;75975.09;;;-145.37;94.86
13486;BME280;6815;59.336;17.998;2022-10-16T07:25:23;75977.13;;;-145.37;94.50
13486;BME280;6815;59.336;17.998;2022-10-16T07:27:49;75977.13;;;-145.37;93.96
13486;BME280;6815;59.336;17.998;2022-10-16T07:30:14;75977.13;;;-145.37;93.82
13486;BME280;6815;59.336;17.998;2022-10-16T07:32:40;75977.13;;;-145.37;93.41
13486;BME280;6815;59.336;17.998;2022-10-16T07:35:06;75975.09;;;-145.37;93.19
13486;BME280;6815;59.336;17.998;2022-10-16T07:37:31;75979.13;;;-145.37;93.34
13486;BME280;6815;59.336;17.998;2022-10-16T07:39:56;75981.13;;;-145.37;93.25
13486;BME280;6815;59.336;17.998;2022-10-16T07:42:22;75977.13;;;-145.37;92.83
13486;BME280;6815;59.336;17.998;2022-10-16T07:44:48;75973.09;;;-145.37;92.45
13486;BME280;6815;59.336;17.998;2022-10-16T07:47:13;75969.06;;;-145.37;92.56
13486;BME280;6815;59.336;17.998;2022-10-16T07:49:38;75965.06;;;-145.37;92.40
13486;BME280;6815;59.336;17.998;2022-10-16T07:52:04;75971.09;;;-145.37;91.91
13486;BME280;6815;59.336;17.998;2022-10-16T07:54:29;75971.09;;;-145.37;91.15
13486;BME280;6815;59.336;17.998;2022-10-16T07:56:55;75979.13;;;-145.37;90.54
13486;BME280;6815;59.336;17.998;2022-10-16T07:59:20;75975.09;;;-145.37;90.47
13486;BME280;6815;59.336;17.998;2022-10-16T08:01:46;75981.13;;;-145.37;90.47
13486;BME280;6815;59.336;17.998;2022-10-16T08:04:11;75975.09;;;-145.37;90.00
13486;BME280;6815;59.336;17.998;2022-10-16T08:06:38;75981.13;;;-145.37;89.68
13486;BME280;6815;59.336;17.998;2022-10-16T08:09:06;75981.13;;;-145.37;89.58
13486;BME280;6815;59.336;17.998;2022-10-16T08:11:32;75983.16;;;-145.37;89.49
13486;BME280;6815;59.336;17.998;2022-10-16T08:13:57;75985.16;;;-145.37;89.93
13486;BME280;6815;59.336;17.998;2022-10-16T08:16:23;75985.16;;;-145.37;89.60
13486;BME280;6815;59.336;17.998;2022-10-16T08:18:48;75983.16;;;-145.37;89.29
13486;BME280;6815;59.336;17.998;2022-10-16T08:21:19;75985.16;;;-145.37;88.99
13486;BME280;6815;59.336;17.998;2022-10-16T08:23:45;75995.22;;;-145.37;88.63
13486;BME280;6815;59.336;17.998;2022-10-16T08:26:11;75995.22;;;-145.37;88.37
13486;BME280;6815;59.336;17.998;2022-10-16T08:28:37;75989.19;;;-145.37;88.28
13486;BME280;6815;59.336;17.998;2022-10-16T08:31:13;75995.22;;;-145.37;88.59
13486;BME280;6815;59.336;17.998;2022-10-16T08:33:41;75995.22;;;-145.37;88.46
13486;BME280;6815;59.336;17.998;2022-10-16T08:36:07;75989.19;;;-145.37;88.07
13486;BME280;6815;59.336;17.998;2022-10-16T08:38:33;75989.19;;;-145.37;88.23
13486;BME280;6815;59.336;17.998;2022-10-16T08:41:19;75991.19;;;-145.37;87.71
13486;BME280;6815;59.336;17.998;2022-10-16T08:47:13;75985.16;;;-145.37;87.81
13486;BME280;6815;59.336;17.998;2022-10-16T08:49:35;75985.16;;;-145.37;87.80
13486;BME280;6815;59.336;17.998;2022-10-16T08:52:01;75985.16;;;-145.37;87.71
13486;BME280;6815;59.336;17.998;2022-10-16T08:54:35;75973.09;;;-145.37;86.98
13486;BME280;6815;59.336;17.998;2022-10-16T08:57:13;75977.13;;;-145.37;86.70
13486;BME280;6815;59.336;17.998;2022-10-16T08:59:39;75985.16;;;-145.37;87.20
13486;BME280;6815;59.336;17.998;2022-10-16T09:02:34;75977.13;;;-145.37;86.38
13486;BME280;6815;59.336;17.998;2022-10-16T09:18:20;75979.13;;;-145.37;85.76
13486;BME280;6815;59.336;17.998;2022-10-16T09:20:56;75971.09;;;-145.37;85.47
13486;BME280;6815;59.336;17.998;2022-10-16T09:23:27;75979.13;;;-145.37;85.33
13486;BME280;6815;59.336;17.998;2022-10-16T09:25:55;75973.09;;;-145.37;85.27
13486;BME280;6815;59.336;17.998;2022-10-16T09:28:20;75967.06;;;-145.37;84.84
13486;BME280;6815;59.336;17.998;2022-10-16T09:30:47;75961.03;;;-145.37;84.93
13486;BME280;6815;59.336;17.998;2022-10-16T09:33:15;75959.03;;;-145.37;85.01
13486;BME280;6815;59.336;17.998;2022-10-16T09:35:44;75955.00;;;-145.37;84.93
13486;BME280;6815;59.336;17.998;2022-10-16T09:38:31;75953.00;;;-145.37;85.01
13486;BME280;6815;59.336;17.998;2022-10-16T09:41:02;75963.03;;;-145.37;84.62
13486;BME280;6815;59.336;17.998;2022-10-16T09:43:39;75963.03;;;-145.37;84.30
13486;BME280;6815;59.336;17.998;2022-10-16T09:49:25;75951.00;;;-145.37;83.96
13486;BME280;6815;59.336;17.998;2022-10-16T09:52:03;75948.97;;;-145.37;83.69
13486;BME280;6815;59.336;17.998;2022-10-16T09:54:29;75944.97;;;-145.37;83.62
13486;BME280;6815;59.336;17.998;2022-10-16T09:57:05;75934.91;;;-145.37;83.36
13486;BME280;6815;59.336;17.998;2022-10-16T09:59:31;75938.94;;;-145.37;83.03
13486;BME280;6815;59.336;17.998;2022-10-16T10:02:04;75946.97;;;-145.37;82.52
13486;BME280;6815;59.336;17.998;2022-10-16T10:04:58;75944.97;;;-145.37;82.02
13486;BME280;6815;59.336;17.998;2022-10-16T10:07:33;75946.97;;;-145.37;82.11
13486;BME280;6815;59.336;17.998;2022-10-16T10:10:03;75942.94;;;-145.37;81.86
13486;BME280;6815;59.336;17.998;2022-10-16T10:12:30;75944.97;;;-145.37;81.80
13486;BME280;6815;59.336;17.998;2022-10-16T10:15:07;75946.97;;;-145.37;82.09
13486;BME280;6815;59.336;17.998;2022-10-16T10:17:48;75936.91;;;-145.37;82.47
13486;BME280;6815;59.336;17.998;2022-10-16T10:23:23;75944.97;;;-145.37;82.04
13486;BME280;6815;59.336;17.998;2022-10-16T10:33:43;75922.84;;;-145.37;81.09
13486;BME280;6815;59.336;17.998;2022-10-16T10:39:04;75928.88;;;-145.37;81.08
13486;BME280;6815;59.336;17.998;2022-10-16T10:46:57;75918.81;;;-145.37;79.65
13486;BME280;6815;59.336;17.998;2022-10-16T10:49:48;75906.75;;;-145.37;79.57
13486;BME280;6815;59.336;17.998;2022-10-16T10:57:54;75886.66;;;-145.37;78.59
13486;BME280;6815;59.336;17.998;2022-10-16T11:03:31;75888.66;;;-145.37;77.53
13486;BME280;6815;59.336;17.998;2022-10-16T11:06:06;75898.72;;;-145.37;77.38
13486;BME280;6815;59.336;17.998;2022-10-16T11:08:45;75888.66;;;-145.37;77.12
13486;BME280;6815;59.336;17.998;2022-10-16T11:12:36;75884.66;;;-145.37;76.20
13486;BME280;6815;59.336;17.998;2022-10-16T11:14:38;75880.63;;;-145.37;76.16
13486;BME280;6815;59.336;17.998;2022-10-16T11:17:27;75884.66;;;-145.37;75.12
13486;BME280;6815;59.336;17.998;2022-10-16T11:19:58;75890.69;;;-145.37;73.77
13486;BME280;6815;59.336;17.998;2022-10-16T11:22:36;75880.63;;;-145.37;73.24
13486;BME280;6815;59.336;17.998;2022-10-16T11:25:28;75880.63;;;-145.37;72.84
13486;BME280;6815;59.336;17.998;2022-10-16T11:28:01;75872.59;;;-145.37;73.16
13486;BME280;6815;59.336;17.998;2022-10-16T11:30:30;75872.59;;;-145.37;72.97
13486;BME280;6815;59.336;17.998;2022-10-16T11:38:15;75854.50;;;-145.37;73.16
13486;BME280;6815;59.336;17.998;2022-10-16T11:40:43;75846.47;;;-145.37;72.79
13486;BME280;6815;59.336;17.998;2022-10-16T11:43:17;75848.47;;;-145.37;73.14
13486;BME280;6815;59.336;17.998;2022-10-16T11:45:50;75844.44;;;-145.37;72.54
13486;BME280;6815;59.336;17.998;2022-10-16T11:48:38;75842.44;;;-145.37;72.17
13486;BME280;6815;59.336;17.998;2022-10-16T11:54:50;75840.44;;;-145.37;71.68
13486;BME280;6815;59.336;17.998;2022-10-16T11:57:20;75842.44;;;-145.37;70.52
13486;BME280;6815;59.336;17.998;2022-10-16T12:02:28;75830.38;;;-145.37;70.32
13486;BME280;6815;59.336;17.998;2022-10-16T12:08:12;75814.28;;;-145.37;70.01
13486;BME280;6815;59.336;17.998;2022-10-16T12:10:40;75804.25;;;-145.37;70.24
13486;BME280;6815;59.336;17.998;2022-10-16T12:13:35;75806.25;;;-145.37;70.28
13486;BME280;6815;59.336;17.998;2022-10-16T12:16:05;75804.25;;;-145.37;70.66
13486;BME280;6815;59.336;17.998;2022-10-16T12:18:31;75804.25;;;-145.37;70.79
13486;BME280;6815;59.336;17.998;2022-10-16T12:20:59;75802.25;;;-145.37;71.16
13486;BME280;6815;59.336;17.998;2022-10-16T12:23:32;75794.19;;;-145.37;71.64
13486;BME280;6815;59.336;17.998;2022-10-16T12:25:59;75788.16;;;-145.37;71.43
13486;BME280;6815;59.336;17.998;2022-10-16T12:28:31;75776.09;;;-145.37;71.65
13486;BME280;6815;59.336;17.998;2022-10-16T12:31:08;75772.09;;;-145.37;72.15
13486;BME280;6815;59.336;17.998;2022-10-16T12:33:50;75770.06;;;-145.37;72.48
13486;BME280;6815;59.336;17.998;2022-10-16T12:36:29;75778.13;;;-145.37;72.37
13486;BME280;6815;59.336;17.998;2022-10-16T12:38:56;75786.16;;;-145.37;72.79
13486;BME280;6815;59.336;17.998;2022-10-16T12:43:53;75780.13;;;-145.37;72.84
13486;BME280;6815;59.336;17.998;2022-10-16T12:46:21;75782.13;;;-145.37;72.64
13486;BME280;6815;59.336;17.998;2022-10-16T12:48:47;75776.09;;;-145.37;72.86
13486;BME280;6815;59.336;17.998;2022-10-16T12:51:34;75770.06;;;-145.37;72.50
13486;BME280;6815;59.336;17.998;2022-10-16T12:54:14;75776.09;;;-145.37;72.56
13486;BME280;6815;59.336;17.998;2022-10-16T13:10:32;75762.03;;;-145.37;71.77
13486;BME280;6815;59.336;17.998;2022-10-16T13:18:45;75741.94;;;-145.37;72.24
13486;BME280;6815;59.336;17.998;2022-10-16T13:21:26;75733.91;;;-145.37;72.05
13486;BME280;6815;59.336;17.998;2022-10-16T13:29:33;75715.81;;;-145.37;71.30
13486;BME280;6815;59.336;17.998;2022-10-16T13:32:01;75717.81;;;-145.37;71.45
13486;BME280;6815;59.336;17.998;2022-10-16T13:34:32;75721.84;;;-145.37;71.44
13486;BME280;6815;59.336;17.998;2022-10-16T13:36:57;75713.78;;;-145.37;71.64
13486;BME280;6815;59.336;17.998;2022-10-16T13:39:29;75709.78;;;-145.37;71.44
13486;BME280;6815;59.336;17.998;2022-10-16T13:44:39;75705.75;;;-145.37;70.88
13486;BME280;6815;59.336;17.998;2022-10-16T13:47:16;75703.75;;;-145.37;70.82
13486;BME280;6815;59.336;17.998;2022-10-16T13:49:42;75695.69;;;-145.37;70.71
13486;BME280;6815;59.336;17.998;2022-10-16T13:52:19;75687.66;;;-145.37;70.68
13486;BME280;6815;59.336;17.998;2022-10-16T13:54:44;75695.69;;;-145.37;70.67
13486;BME280;6815;59.336;17.998;2022-10-16T13:57:14;75697.72;;;-145.37;70.79
13486;BME280;6815;59.336;17.998;2022-10-16T13:59:40;75697.72;;;-145.37;70.52
13486;BME280;6815;59.336;17.998;2022-10-16T14:02:35;75701.72;;;-145.37;70.30
13486;BME280;6815;59.336;17.998;2022-10-16T14:05:04;75701.72;;;-145.37;70.32
13486;BME280;6815;59.336;17.998;2022-10-16T14:07:34;75699.72;;;-145.37;69.96
13486;BME280;6815;59.336;17.998;2022-10-16T14:10:04;75701.72;;;-145.37;70.39
13486;BME280;6815;59.336;17.998;2022-10-16T14:12:30;75705.75;;;-145.37;70.22
13486;BME280;6815;59.336;17.998;2022-10-16T14:14:57;75707.75;;;-145.37;69.75
13486;BME280;6815;59.336;17.998;2022-10-16T14:17:31;75711.78;;;-145.37;69.81
13486;BME280;6815;59.336;17.998;2022-10-16T14:20:00;75713.78;;;-145.37;69.84
13486;BME280;6815;59.336;17.998;2022-10-16T14:22:40;75713.78;;;-145.37;69.87
13486;BME280;6815;59.336;17.998;2022-10-16T14:25:27;75717.81;;;-145.37;70.31
13486;BME280;6815;59.336;17.998;2022-10-16T14:27:58;75717.81;;;-145.37;70.18
13486;BME280;6815;59.336;17.998;2022-10-16T14:30:25;75719.81;;;-145.37;70.44
13486;BME280;6815;59.336;17.998;2022-10-16T14:33:00;75727.88;;;-145.37;70.56
13486;BME280;6815;59.336;17.998;2022-10-16T14:35:31;75743.94;;;-145.37;71.06
13486;BME280;6815;59.336;17.998;2022-10-16T14:37:59;75737.91;;;-145.37;70.99
13486;BME280;6815;59.336;17.998;2022-10-16T14:40:28;75747.97;;;-145.37;70.81
13486;BME280;6815;59.336;17.998;2022-10-16T14:42:55;75751.97;;;-145.37;71.01
13486;BME280;6815;59.336;17.998;2022-10-16T14:45:24;75747.97;;;-145.37;71.37